createdAt,value
2019-02-09T00:01:58.318Z,4.00
2019-02-09T00:04:28.513Z,4.10
2019-02-09T00:06:58.785Z,4.10
2019-02-09T00:09:28.983Z,4.10
2019-02-09T00:11:59.132Z,4.00
2019-02-09T00:14:29.428Z,4.10
2019-02-09T00:16:59.634Z,4.10
2019-02-09T00:19:29.924Z,4.00
2019-02-09T00:22:00.130Z,4.00
2019-02-09T00:24:30.421Z,4.00
2019-02-09T00:27:00.639Z,4.00
2019-02-09T00:29:30.902Z,3.90
2019-02-09T00:32:01.082Z,3.90
2019-02-09T00:34:31.319Z,3.90
2019-02-09T00:37:01.590Z,4.00
2019-02-09T00:39:31.884Z,3.90
2019-02-09T00:42:02.144Z,3.80
2019-02-09T00:44:32.518Z,3.70
2019-02-09T00:47:02.766Z,3.70
2019-02-09T00:49:33.003Z,3.70
2019-02-09T00:52:03.199Z,3.70
2019-02-09T00:54:33.364Z,3.60
2019-02-09T00:57:03.686Z,3.60
2019-02-09T00:59:33.899Z,3.50
2019-02-09T01:02:04.198Z,3.50
2019-02-09T01:04:34.388Z,3.50
2019-02-09T01:07:04.799Z,3.40
2019-02-09T01:09:34.947Z,3.30
2019-02-09T01:12:05.272Z,3.20
2019-02-09T01:14:35.578Z,3.20
2019-02-09T01:17:05.933Z,3.10
2019-02-09T01:19:36.340Z,3.30
2019-02-09T01:22:06.517Z,3.30
2019-02-09T01:24:36.809Z,3.30
2019-02-09T01:27:07.030Z,3.30
2019-02-09T01:29:37.369Z,3.20
2019-02-09T01:32:07.630Z,3.10
2019-02-09T01:34:37.913Z,3.20
2019-02-09T01:37:08.058Z,3.30
2019-02-09T01:39:38.244Z,3.30
2019-02-09T01:42:08.429Z,3.20
2019-02-09T01:44:38.646Z,3.30
2019-02-09T01:47:08.830Z,3.30
2019-02-09T01:49:39.060Z,3.30
2019-02-09T01:52:09.273Z,3.30
2019-02-09T01:54:39.459Z,3.30
2019-02-09T01:57:09.763Z,3.30
2019-02-09T01:59:39.919Z,3.20
2019-02-09T02:02:10.190Z,3.20
2019-02-09T02:04:40.580Z,3.30
2019-02-09T02:07:10.745Z,3.40
2019-02-09T02:09:40.867Z,3.40
2019-02-09T02:12:11.151Z,3.50
2019-02-09T02:14:41.286Z,3.50
2019-02-09T02:17:11.585Z,3.40
2019-02-09T02:19:41.827Z,3.40
2019-02-09T02:22:12.031Z,3.40
2019-02-09T02:24:42.309Z,3.30
2019-02-09T02:27:12.437Z,3.30
2019-02-09T02:29:42.723Z,3.30
2019-02-09T02:32:12.896Z,3.30
2019-02-09T02:34:43.155Z,3.30
2019-02-09T02:37:13.505Z,3.30
2019-02-09T02:39:43.767Z,3.50
2019-02-09T02:42:13.895Z,3.50
2019-02-09T02:44:44.022Z,3.50
2019-02-09T02:47:14.169Z,3.60
2019-02-09T02:49:44.482Z,3.60
2019-02-09T02:52:14.680Z,3.70
2019-02-09T02:54:45.225Z,3.70
2019-02-09T02:57:15.549Z,3.90
2019-02-09T02:59:45.737Z,3.90
2019-02-09T03:02:15.957Z,4.00
2019-02-09T03:04:46.145Z,4.00
2019-02-09T03:07:16.441Z,4.00
2019-02-09T03:09:46.611Z,4.10
2019-02-09T03:12:16.804Z,4.10
2019-02-09T03:14:47.108Z,4.20
2019-02-09T03:17:17.396Z,4.20
2019-02-09T03:19:47.586Z,4.10
2019-02-09T03:22:17.848Z,4.20
2019-02-09T03:24:48.080Z,4.20
2019-02-09T03:27:18.373Z,4.20
2019-02-09T03:29:48.682Z,4.30
2019-02-09T03:32:18.981Z,4.40
2019-02-09T03:34:49.164Z,4.30
2019-02-09T03:37:19.403Z,4.30
2019-02-09T03:39:49.650Z,4.30
2019-02-09T03:42:20.049Z,4.40
2019-02-09T03:44:50.254Z,4.40
2019-02-09T03:47:21.308Z,4.40
2019-02-09T03:49:51.626Z,4.30
2019-02-09T03:52:21.796Z,4.40
2019-02-09T03:54:51.926Z,4.50
2019-02-09T03:57:22.116Z,4.50
2019-02-09T03:59:52.199Z,4.50
2019-02-09T04:02:22.514Z,4.70
2019-02-09T04:04:52.694Z,4.60
2019-02-09T04:07:22.930Z,4.60
2019-02-09T04:09:53.066Z,4.60
2019-02-09T04:12:23.976Z,4.60
2019-02-09T04:14:54.227Z,4.60
2019-02-09T04:17:24.518Z,4.70
2019-02-09T04:19:54.803Z,4.80
2019-02-09T04:22:25.070Z,4.90
2019-02-09T04:24:55.225Z,4.90
2019-02-09T04:27:25.491Z,4.90
2019-02-09T04:29:55.742Z,4.90
2019-02-09T04:32:25.897Z,4.80
2019-02-09T04:34:56.080Z,4.80
2019-02-09T04:37:26.223Z,4.80
2019-02-09T04:39:56.532Z,4.80
2019-02-09T04:42:26.821Z,4.70
2019-02-09T04:44:56.978Z,4.70
2019-02-09T04:47:27.232Z,4.70
2019-02-09T04:49:57.552Z,4.60
2019-02-09T04:52:28.949Z,4.50
2019-02-09T04:54:59.247Z,4.50
2019-02-09T04:57:29.414Z,4.60
2019-02-09T04:59:59.599Z,4.60
2019-02-09T05:02:29.790Z,4.70
2019-02-09T05:05:00.025Z,4.60
2019-02-09T05:07:30.274Z,4.80
2019-02-09T05:10:00.519Z,4.80
2019-02-09T05:12:30.869Z,4.60
2019-02-09T05:15:01.118Z,4.60
2019-02-09T05:17:31.305Z,4.60
2019-02-09T05:20:01.450Z,4.50
2019-02-09T05:22:31.809Z,4.50
2019-02-09T05:25:01.960Z,4.70
2019-02-09T05:27:32.223Z,4.70
2019-02-09T05:30:02.541Z,4.80
2019-02-09T05:32:32.765Z,4.90
2019-02-09T05:35:03.066Z,4.90
2019-02-09T05:37:33.361Z,4.90
2019-02-09T05:40:03.780Z,4.90
2019-02-09T05:42:33.971Z,5.00
2019-02-09T05:45:05.225Z,5.00
2019-02-09T05:47:35.367Z,5.00
2019-02-09T05:50:06.431Z,5.10
2019-02-09T05:52:36.777Z,5.10
2019-02-09T05:55:07.986Z,5.00
2019-02-09T05:57:38.305Z,5.00
2019-02-09T06:00:19.247Z,5.00
2019-02-09T06:02:49.453Z,4.90
2019-02-09T06:05:19.683Z,4.90
2019-02-09T06:07:49.902Z,4.90
2019-02-09T06:10:20.057Z,4.90
2019-02-09T06:12:50.164Z,4.90
2019-02-09T06:15:20.436Z,4.90
2019-02-09T06:17:50.751Z,4.90
2019-02-09T06:20:22.895Z,4.80
2019-02-09T06:22:53.499Z,4.90
2019-02-09T06:25:23.794Z,4.90
2019-02-09T06:27:54.156Z,4.90
2019-02-09T06:30:25.958Z,4.90
2019-02-09T06:32:56.197Z,5.00
2019-02-09T06:35:26.460Z,5.00
2019-02-09T06:37:56.717Z,5.00
2019-02-09T06:40:27.057Z,4.90
2019-02-09T06:42:57.477Z,4.90
2019-02-09T06:45:27.853Z,4.90
2019-02-09T06:48:29.749Z,4.90
2019-02-09T06:51:02.084Z,5.00
2019-02-09T06:53:32.495Z,5.00
2019-02-09T06:56:02.771Z,5.10
2019-02-09T06:58:32.957Z,5.00
2019-02-09T07:01:03.131Z,5.10
2019-02-09T07:03:33.517Z,5.10
2019-02-09T07:06:03.782Z,5.20
2019-02-09T07:08:34.049Z,5.20
2019-02-09T07:11:04.560Z,5.30
2019-02-09T07:13:34.814Z,5.40
2019-02-09T07:16:05.223Z,5.30
2019-02-09T07:18:35.522Z,5.40
2019-02-09T07:21:05.991Z,5.40
2019-02-09T07:23:36.276Z,5.40
2019-02-09T07:26:06.557Z,5.50
2019-02-09T07:28:36.826Z,5.60
2019-02-09T07:31:07.086Z,5.70
2019-02-09T07:33:37.427Z,5.80
2019-02-09T07:36:07.627Z,5.90
2019-02-09T07:38:38.038Z,5.90
2019-02-09T07:41:08.218Z,5.90
2019-02-09T07:43:38.404Z,6.00
2019-02-09T07:46:08.676Z,6.10
2019-02-09T07:48:38.968Z,6.20
2019-02-09T07:51:09.159Z,6.20
2019-02-09T07:53:39.578Z,6.20
2019-02-09T07:56:09.841Z,6.20
2019-02-09T07:58:39.983Z,6.30
2019-02-09T08:01:10.341Z,6.40
2019-02-09T08:03:40.646Z,6.40
2019-02-09T08:06:10.920Z,6.60
2019-02-09T08:08:41.066Z,6.70
2019-02-09T08:11:11.164Z,6.70
2019-02-09T08:13:41.344Z,6.80
2019-02-09T08:16:12.760Z,6.90
2019-02-09T08:18:43.126Z,7.00
2019-02-09T08:21:13.485Z,7.10
2019-02-09T08:23:43.996Z,7.20
2019-02-09T08:26:14.254Z,7.20
2019-02-09T08:28:44.524Z,7.30
2019-02-09T08:31:14.816Z,7.40
2019-02-09T08:33:45.114Z,7.40
2019-02-09T08:36:15.348Z,7.50
2019-02-09T08:38:45.674Z,7.50
2019-02-09T08:41:15.977Z,7.60
2019-02-09T08:43:46.326Z,7.70
2019-02-09T08:46:16.465Z,7.70
2019-02-09T08:48:46.726Z,7.70
2019-02-09T08:51:16.923Z,7.80
2019-02-09T08:53:47.228Z,7.80
2019-02-09T08:56:17.485Z,7.80
2019-02-09T08:58:47.720Z,7.80
2019-02-09T09:01:18.019Z,7.80
2019-02-09T09:03:48.264Z,7.90
2019-02-09T09:06:18.542Z,8.00
2019-02-09T09:08:48.724Z,8.00
2019-02-09T09:11:19.024Z,8.10
2019-02-09T09:13:49.333Z,8.00
2019-02-09T09:16:19.511Z,7.90
2019-02-09T09:18:49.716Z,8.00
2019-02-09T09:21:19.884Z,8.20
2019-02-09T09:23:50.112Z,8.20
2019-02-09T09:26:20.373Z,8.30
2019-02-09T09:28:50.652Z,8.20
2019-02-09T09:31:20.833Z,8.10
2019-02-09T09:33:51.000Z,8.20
2019-02-09T09:36:21.341Z,8.20
2019-02-09T09:38:51.689Z,8.20
2019-02-09T09:41:21.873Z,8.20
2019-02-09T09:43:52.141Z,8.30
2019-02-09T09:46:22.418Z,8.40
2019-02-09T09:48:52.651Z,8.50
2019-02-09T09:51:22.954Z,8.30
2019-02-09T09:53:53.266Z,8.40
2019-02-09T09:56:23.510Z,8.40
2019-02-09T09:58:53.871Z,8.50
2019-02-09T10:01:24.297Z,8.50
2019-02-09T10:03:54.614Z,8.60
2019-02-09T10:06:25.120Z,8.50
2019-02-09T10:08:55.419Z,8.50
2019-02-09T10:11:25.785Z,8.60
2019-02-09T10:13:56.130Z,8.70
2019-02-09T10:16:26.648Z,8.70
2019-02-09T10:18:57.113Z,8.80
2019-02-09T10:21:27.416Z,8.80
2019-02-09T10:23:57.806Z,8.90
2019-02-09T10:26:28.244Z,8.90
2019-02-09T10:28:58.649Z,9.10
2019-02-09T10:31:28.891Z,9.00
2019-02-09T10:33:59.047Z,9.10
2019-02-09T10:36:29.169Z,9.20
2019-02-09T10:38:59.493Z,9.30
2019-02-09T10:41:29.635Z,9.30
2019-02-09T10:43:59.933Z,9.50
2019-02-09T10:46:30.093Z,9.50
2019-02-09T10:49:00.401Z,9.50
2019-02-09T10:51:30.693Z,9.50
2019-02-09T10:54:01.156Z,9.60
2019-02-09T10:56:31.446Z,9.50
2019-02-09T10:59:01.684Z,9.50
2019-02-09T11:01:31.938Z,9.70
2019-02-09T11:04:02.224Z,10.00
2019-02-09T11:06:32.625Z,10.10
2019-02-09T11:09:04.229Z,10.40
2019-02-09T11:11:34.505Z,10.50
2019-02-09T11:14:05.325Z,10.60
2019-02-09T11:16:35.665Z,10.80
2019-02-09T11:19:05.874Z,10.90
2019-02-09T11:21:36.112Z,11.10
2019-02-09T11:24:06.246Z,11.20
2019-02-09T11:26:36.446Z,11.50
2019-02-09T11:29:06.742Z,11.40
2019-02-09T11:31:39.193Z,11.60
2019-02-09T11:34:08.921Z,11.80
2019-02-09T11:36:39.143Z,12.00
2019-02-09T11:39:09.601Z,12.10
2019-02-09T11:41:39.749Z,11.90
2019-02-09T11:44:10.062Z,12.00
2019-02-09T11:46:40.332Z,11.80
2019-02-09T11:49:10.583Z,11.80
2019-02-09T11:51:40.904Z,11.80
2019-02-09T11:54:11.177Z,11.60
2019-02-09T11:56:41.394Z,11.70
2019-02-09T11:59:11.642Z,11.70
2019-02-09T12:01:41.826Z,11.70
2019-02-09T12:04:12.099Z,11.70
2019-02-09T12:06:42.289Z,11.60
2019-02-09T12:09:12.490Z,11.80
2019-02-09T12:11:42.661Z,11.70
2019-02-09T12:14:12.921Z,11.70
2019-02-09T12:16:43.577Z,11.70
2019-02-09T12:19:13.927Z,11.70
2019-02-09T12:21:44.266Z,11.80
2019-02-09T12:24:14.488Z,11.90
2019-02-09T12:26:44.772Z,11.90
2019-02-09T12:29:15.051Z,12.10
2019-02-09T12:31:45.378Z,12.10
2019-02-09T12:34:15.552Z,12.30
2019-02-09T12:36:45.874Z,12.30
2019-02-09T12:39:16.132Z,12.30
2019-02-09T12:41:46.502Z,12.50
2019-02-09T12:44:16.682Z,12.90
2019-02-09T12:46:46.894Z,13.30
2019-02-09T12:49:17.219Z,13.40
2019-02-09T12:51:47.424Z,13.80
2019-02-09T12:54:17.724Z,14.00
2019-02-09T12:56:48.020Z,14.30
2019-02-09T12:59:18.351Z,14.50
2019-02-09T13:01:48.565Z,14.30
2019-02-09T13:04:18.846Z,14.20
2019-02-09T13:06:49.138Z,14.30
2019-02-09T13:09:19.349Z,14.00
2019-02-09T13:11:49.702Z,14.10
2019-02-09T13:14:19.866Z,14.10
2019-02-09T13:16:49.992Z,13.80
2019-02-09T13:19:20.221Z,13.80
2019-02-09T13:21:50.662Z,13.40
2019-02-09T13:24:20.977Z,12.70
2019-02-09T13:26:51.418Z,12.50
2019-02-09T13:29:21.654Z,12.30
2019-02-09T13:31:52.006Z,12.60
2019-02-09T13:34:22.190Z,12.70
2019-02-09T13:36:52.456Z,12.70
2019-02-09T13:39:22.853Z,13.10
2019-02-09T13:41:53.270Z,13.60
2019-02-09T13:44:23.400Z,13.90
2019-02-09T13:46:53.633Z,14.40
2019-02-09T13:49:23.907Z,14.80
2019-02-09T13:51:54.290Z,15.00
2019-02-09T13:54:24.528Z,15.00
2019-02-09T13:56:54.726Z,15.50
2019-02-09T13:59:24.991Z,15.40
2019-02-09T14:01:55.176Z,15.30
2019-02-09T14:04:25.444Z,15.50
2019-02-09T14:06:55.605Z,16.00
2019-02-09T14:09:25.803Z,15.80
2019-02-09T14:11:56.192Z,16.00
2019-02-09T14:14:26.391Z,16.00
2019-02-09T14:16:56.659Z,15.90
2019-02-09T14:19:26.833Z,15.80
2019-02-09T14:21:56.962Z,16.00
2019-02-09T14:24:27.177Z,15.80
2019-02-09T14:26:57.457Z,15.50
2019-02-09T14:29:27.649Z,15.10
2019-02-09T14:31:57.835Z,15.10
2019-02-09T14:34:29.512Z,14.90
2019-02-09T14:36:59.978Z,15.00
2019-02-09T14:39:30.175Z,14.50
2019-02-09T14:42:00.467Z,14.30
2019-02-09T14:44:30.650Z,14.10
2019-02-09T14:47:00.933Z,13.80
2019-02-09T14:49:31.169Z,13.60
2019-02-09T14:52:01.420Z,13.50
2019-02-09T14:54:31.634Z,13.20
2019-02-09T14:57:02.011Z,12.50
2019-02-09T14:59:32.306Z,12.30
2019-02-09T15:02:02.506Z,12.20
2019-02-09T15:04:32.719Z,11.60
2019-02-09T15:07:02.999Z,11.30
2019-02-09T15:09:33.178Z,11.30
2019-02-09T15:12:03.535Z,11.30
2019-02-09T15:14:33.743Z,10.90
2019-02-09T15:17:05.547Z,11.00
2019-02-09T15:19:38.459Z,11.00
2019-02-09T15:22:08.802Z,10.90
2019-02-09T15:24:39.056Z,11.00
2019-02-09T15:27:09.319Z,11.00
2019-02-09T15:29:39.534Z,10.70
2019-02-09T15:32:09.803Z,10.60
2019-02-09T15:34:40.115Z,10.60
2019-02-09T15:37:10.338Z,10.50
2019-02-09T15:39:40.677Z,10.60
2019-02-09T15:42:10.983Z,10.60
2019-02-09T15:44:41.194Z,10.50
2019-02-09T15:47:11.379Z,10.40
2019-02-09T15:49:41.719Z,10.20
2019-02-09T15:52:11.930Z,10.20
2019-02-09T15:54:42.163Z,10.40
2019-02-09T15:57:12.433Z,10.30
2019-02-09T15:59:42.734Z,10.40
2019-02-09T16:02:12.890Z,10.40
2019-02-09T16:04:43.198Z,10.30
2019-02-09T16:07:13.348Z,10.20
2019-02-09T16:09:43.611Z,10.20
2019-02-09T16:12:13.745Z,10.20
2019-02-09T16:14:44.025Z,10.10
2019-02-09T16:17:14.264Z,10.10
2019-02-09T16:19:46.169Z,10.10
2019-02-09T16:22:16.637Z,10.00
2019-02-09T16:24:46.919Z,10.00
2019-02-09T16:27:18.118Z,10.00
2019-02-09T16:29:48.354Z,9.80
2019-02-09T16:32:18.686Z,9.70
2019-02-09T16:34:48.980Z,9.60
2019-02-09T16:37:19.265Z,9.70
2019-02-09T16:39:49.449Z,9.80
2019-02-09T16:42:19.733Z,9.80
2019-02-09T16:44:50.007Z,9.80
2019-02-09T16:47:20.242Z,9.70
2019-02-09T16:49:50.530Z,9.80
2019-02-09T16:52:20.778Z,9.70
2019-02-09T16:54:51.116Z,9.70
2019-02-09T16:57:21.279Z,9.70
2019-02-09T16:59:51.599Z,9.60
2019-02-09T17:02:21.895Z,9.70
2019-02-09T17:04:52.116Z,9.70
2019-02-09T17:07:22.290Z,9.70
2019-02-09T17:09:52.456Z,9.60
2019-02-09T17:12:22.724Z,9.70
2019-02-09T17:14:53.033Z,9.60
2019-02-09T17:17:23.222Z,9.50
2019-02-09T17:19:53.562Z,9.50
2019-02-09T17:22:23.863Z,9.60
2019-02-09T17:24:54.126Z,9.60
2019-02-09T17:27:24.563Z,9.60
2019-02-09T17:29:54.896Z,9.70
2019-02-09T17:32:25.177Z,9.70
2019-02-09T17:34:55.452Z,9.80
2019-02-09T17:37:25.739Z,9.80
2019-02-09T17:39:55.969Z,9.60
2019-02-09T17:42:26.354Z,9.40
2019-02-09T17:44:56.551Z,9.30
2019-02-09T17:47:26.881Z,9.20
2019-02-09T17:49:57.111Z,9.00
2019-02-09T17:52:27.384Z,9.10
2019-02-09T17:54:57.687Z,9.30
2019-02-09T17:57:27.898Z,9.20
2019-02-09T17:59:58.165Z,9.20
2019-02-09T18:02:28.396Z,9.10
2019-02-09T18:04:58.586Z,9.10
2019-02-09T18:07:28.751Z,9.00
2019-02-09T18:09:59.027Z,9.00
2019-02-09T18:12:29.397Z,9.00
2019-02-09T18:14:59.687Z,9.10
2019-02-09T18:17:29.863Z,9.20
2019-02-09T18:20:00.203Z,9.20
2019-02-09T18:22:30.387Z,8.80
2019-02-09T18:25:00.603Z,8.70
2019-02-09T18:27:30.825Z,8.60
2019-02-09T18:30:01.027Z,8.60
2019-02-09T18:32:31.269Z,8.50
2019-02-09T18:35:01.598Z,8.60
2019-02-09T18:37:31.877Z,8.60
2019-02-09T18:40:02.149Z,8.40
2019-02-09T18:42:32.376Z,8.40
2019-02-09T18:45:02.620Z,8.40
2019-02-09T18:47:32.822Z,8.40
2019-02-09T18:50:03.006Z,8.20
2019-02-09T18:52:33.830Z,8.10
2019-02-09T18:55:04.517Z,8.10
2019-02-09T18:57:34.771Z,8.20
2019-02-09T19:00:06.624Z,8.20
2019-02-09T19:02:38.550Z,8.40
2019-02-09T19:05:09.781Z,8.50
2019-02-09T19:07:40.025Z,8.50
2019-02-09T19:10:13.849Z,8.60
2019-02-09T19:12:44.217Z,8.60
2019-02-09T19:15:15.381Z,8.60
2019-02-09T19:17:45.810Z,8.60
2019-02-09T19:20:21.856Z,8.50
2019-02-09T19:22:52.228Z,8.40
2019-02-09T19:25:22.945Z,8.30
2019-02-09T19:27:53.271Z,8.40
2019-02-09T19:30:23.852Z,8.40
2019-02-09T19:32:54.134Z,8.50
2019-02-09T19:35:24.449Z,8.50
2019-02-09T19:37:54.700Z,8.50
2019-02-09T19:40:25.161Z,8.50
2019-02-09T19:42:55.550Z,8.60
2019-02-09T19:45:27.983Z,8.60
2019-02-09T19:47:58.350Z,8.60
2019-02-09T19:50:28.592Z,8.50
2019-02-09T19:52:58.784Z,8.30
2019-02-09T19:55:29.902Z,8.40
2019-02-09T19:58:00.205Z,8.40
2019-02-09T20:00:35.814Z,8.20
2019-02-09T20:03:07.269Z,8.20
2019-02-09T20:05:37.725Z,8.10
2019-02-09T20:08:08.642Z,8.00
2019-02-09T20:10:39.607Z,7.90
2019-02-09T20:13:10.387Z,8.00
2019-02-09T20:15:40.725Z,8.00
2019-02-09T20:18:11.593Z,8.00
2019-02-09T20:20:47.302Z,8.00
2019-02-09T20:23:13.894Z,8.00
2019-02-09T20:25:44.335Z,8.10
2019-02-09T20:28:14.626Z,8.00
2019-02-09T20:30:44.980Z,8.10
2019-02-09T20:33:15.460Z,8.20
2019-02-09T20:35:45.701Z,8.10
2019-02-09T20:38:16.026Z,8.10
2019-02-09T20:40:52.118Z,8.10
2019-02-09T20:43:22.583Z,8.20
2019-02-09T20:45:52.915Z,8.10
2019-02-09T20:48:24.970Z,8.00
2019-02-09T20:50:56.448Z,8.00
2019-02-09T20:53:26.583Z,7.90
2019-02-09T20:55:59.562Z,7.90
2019-02-09T20:58:29.851Z,7.90
2019-02-09T21:01:00.142Z,7.70
2019-02-09T21:03:32.971Z,7.80
2019-02-09T21:06:03.344Z,7.80
2019-02-09T21:08:33.508Z,7.70
2019-02-09T21:11:03.795Z,7.80
2019-02-09T21:13:35.042Z,7.90
2019-02-09T21:16:05.685Z,7.90
2019-02-09T21:18:35.957Z,7.90
2019-02-09T21:21:06.144Z,7.90
2019-02-09T21:23:36.435Z,7.90
2019-02-09T21:26:06.716Z,7.80
2019-02-09T21:28:36.946Z,7.80
2019-02-09T21:31:07.429Z,7.80
2019-02-09T21:33:37.760Z,7.80
2019-02-09T21:36:08.249Z,7.90
2019-02-09T21:38:38.796Z,7.80
2019-02-09T21:41:09.080Z,7.80
2019-02-09T21:43:39.244Z,7.80
2019-02-09T21:46:09.606Z,7.80
2019-02-09T21:48:39.830Z,7.70
2019-02-09T21:51:10.245Z,7.70
2019-02-09T21:53:40.556Z,7.70
2019-02-09T21:56:10.810Z,7.70
2019-02-09T21:58:41.030Z,7.60
2019-02-09T22:01:11.357Z,7.50
2019-02-09T22:03:41.608Z,7.40
2019-02-09T22:06:11.894Z,7.30
2019-02-09T22:08:42.391Z,7.10
2019-02-09T22:11:12.588Z,7.10
2019-02-09T22:13:42.856Z,7.10
2019-02-09T22:16:13.068Z,7.10
2019-02-09T22:18:43.419Z,7.10
2019-02-09T22:21:13.842Z,7.10
2019-02-09T22:23:44.172Z,7.00
2019-02-09T22:26:14.477Z,6.90
2019-02-09T22:28:44.822Z,6.80
2019-02-09T22:31:21.741Z,6.50
2019-02-09T22:33:48.638Z,6.50
2019-02-09T22:36:19.014Z,6.40
2019-02-09T22:38:49.301Z,6.30
2019-02-09T22:41:19.449Z,6.20
2019-02-09T22:43:49.591Z,6.20
2019-02-09T22:46:19.840Z,6.30
2019-02-09T22:48:50.089Z,6.30
2019-02-09T22:51:20.384Z,6.20
2019-02-09T22:53:50.576Z,6.30
2019-02-09T22:56:20.851Z,6.30
2019-02-09T22:58:50.999Z,6.30
2019-02-09T23:01:32.211Z,6.30
2019-02-09T23:04:39.149Z,6.20
2019-02-09T23:07:18.918Z,6.20
2019-02-09T23:09:49.169Z,6.20
2019-02-09T23:12:19.423Z,6.20
2019-02-09T23:14:49.705Z,6.20
2019-02-09T23:17:19.977Z,6.10
2019-02-09T23:19:50.149Z,6.10
2019-02-09T23:22:20.314Z,6.10
2019-02-09T23:24:50.561Z,6.10
2019-02-09T23:27:20.874Z,6.20
2019-02-09T23:29:51.055Z,6.10
2019-02-09T23:32:21.258Z,6.00
2019-02-09T23:34:51.582Z,6.10
2019-02-09T23:37:21.819Z,6.00
2019-02-09T23:39:52.097Z,6.00
2019-02-09T23:42:22.292Z,6.00
2019-02-09T23:44:52.465Z,6.10
2019-02-09T23:47:22.745Z,6.00
2019-02-09T23:49:54.498Z,6.00
2019-02-09T23:52:24.941Z,6.00
2019-02-09T23:54:55.094Z,6.00
2019-02-09T23:57:25.468Z,6.00
2019-02-09T23:59:55.634Z,6.00
